Time;durP1;ratioP1;P1;durP2;ratioP2;P2;SDS_P1;SDS_P2;PMS_P1;PMS_P2;Temp;Humidity;BMP_temperature;BMP_pressure;BME280_temperature;BME280_humidity;BME280_pressure;Samples;Min_cycle;Max_cycle;Signal;HPM_P1;HPM_P2
2021/07/07 00:00:13;;;;;;;9.35;6.28;;;;;;;15.79;79.21;95725.79;1777671;81;20982;-59
2021/07/07 00:02:42;;;;;;;7.90;6.83;;;;;;;15.77;78.85;95723.20;1777604;81;21068;-59
2021/07/07 00:05:11;;;;;;;10.70;6.65;;;;;;;15.74;79.16;95723.76;1777953;81;20983;-59
2021/07/07 00:07:39;;;;;;;7.78;6.90;;;;;;;15.72;79.66;95721.17;1777547;81;21001;-59
2021/07/07 00:10:12;;;;;;;8.10;6.08;;;;;;;15.68;79.08;95729.28;1777796;81;20959;-59
2021/07/07 00:12:38;;;;;;;7.05;5.45;;;;;;;15.65;79.08;95726.71;1777956;81;21073;-59
2021/07/07 00:15:11;;;;;;;13.60;6.42;;;;;;;15.61;78.77;95730.42;1777942;81;21006;-59
2021/07/07 00:17:39;;;;;;;6.72;6.10;;;;;;;15.46;79.28;95726.52;1777122;81;21061;-59
2021/07/07 00:20:11;;;;;;;10.03;6.70;;;;;;;15.41;79.65;95728.01;1777706;81;20986;-59
2021/07/07 00:22:38;;;;;;;7.37;4.92;;;;;;;15.43;79.38;95729.30;1777633;81;21006;-59
2021/07/07 00:25:07;;;;;;;9.55;6.28;;;;;;;15.40;79.47;95724.95;1777673;81;21559;-59
2021/07/07 00:27:34;;;;;;;7.90;6.60;;;;;;;15.39;79.12;95723.20;1777856;81;21018;-59
2021/07/07 00:30:01;;;;;;;7.50;5.80;;;;;;;15.37;78.84;95721.05;1777509;80;21049;-58
2021/07/07 00:32:28;;;;;;;8.58;6.25;;;;;;;15.34;79.21;95726.48;1777497;81;20990;-59
2021/07/07 00:34:54;;;;;;;9.00;6.65;;;;;;;15.27;80.34;95727.61;1777739;81;20998;-59
2021/07/07 00:37:21;;;;;;;7.60;6.10;;;;;;;15.32;79.93;95724.34;1777188;81;21030;-59
2021/07/07 00:39:47;;;;;;;7.87;6.83;;;;;;;15.34;79.98;95726.02;1778040;80;21005;-59
2021/07/07 00:42:14;;;;;;;8.88;5.58;;;;;;;15.35;80.69;95726.91;1777247;80;21566;-59
2021/07/07 00:44:40;;;;;;;8.40;6.42;;;;;;;15.40;80.36;95724.09;1777473;80;21002;-59
2021/07/07 00:47:07;;;;;;;6.17;5.58;;;;;;;15.31;79.60;95719.95;1777714;80;20998;-59
2021/07/07 00:49:35;;;;;;;7.83;6.22;;;;;;;15.28;79.22;95726.25;1777070;81;20990;-59
2021/07/07 00:52:08;;;;;;;6.95;6.05;;;;;;;15.17;79.95;95731.08;1777724;81;21035;-58
2021/07/07 00:54:32;;;;;;;6.60;5.90;;;;;;;15.18;80.17;95730.14;1775750;81;20986;-59
2021/07/07 00:57:00;;;;;;;8.38;6.03;;;;;;;15.13;79.68;95733.42;1777090;81;21025;-58
2021/07/07 00:59:29;;;;;;;6.40;5.80;;;;;;;15.06;79.47;95731.89;1777956;81;21033;-59
2021/07/07 01:01:56;;;;;;;8.03;6.15;;;;;;;14.96;80.36;95735.78;1777842;81;21448;-58
2021/07/07 01:04:23;;;;;;;7.97;6.70;;;;;;;14.86;80.39;95736.08;1777634;80;21056;-59
2021/07/07 01:06:50;;;;;;;8.78;6.08;;;;;;;14.81;80.32;95733.17;1777692;81;20977;-61
2021/07/07 01:09:17;;;;;;;10.60;7.03;;;;;;;14.84;79.78;95731.73;1777413;81;21551;-58
2021/07/07 01:11:43;;;;;;;7.53;6.65;;;;;;;14.81;80.04;95728.72;1777708;81;20969;-59
2021/07/07 01:14:10;;;;;;;7.62;6.75;;;;;;;14.79;80.40;95732.34;1777378;81;21004;-59
2021/07/07 01:16:43;;;;;;;8.25;5.85;;;;;;;14.78;81.76;95732.81;1777700;81;21045;-59
2021/07/07 01:19:12;;;;;;;8.08;6.30;;;;;;;14.74;81.45;95734.28;1777956;80;21058;-59
2021/07/07 01:21:51;;;;;;;8.27;6.77;;;;;;;14.70;81.36;95730.88;1777815;81;21014;-59
2021/07/07 01:24:19;;;;;;;7.67;6.90;;;;;;;14.72;81.10;95725.06;1777466;80;21018;-59
2021/07/07 01:26:48;;;;;;;8.10;7.10;;;;;;;14.70;81.23;95731.73;1777419;81;21496;-59
2021/07/07 01:29:15;;;;;;;9.70;7.83;;;;;;;14.65;81.27;95730.16;1777783;80;21018;-59
2021/07/07 01:31:43;;;;;;;7.77;5.80;;;;;;;14.67;81.31;95728.33;1777267;81;21069;-59
2021/07/07 01:34:10;;;;;;;8.37;6.17;;;;;;;14.61;81.26;95730.70;1777771;80;20989;-60
2021/07/07 01:36:38;;;;;;;9.88;7.00;;;;;;;14.59;82.09;95731.23;1777797;81;20970;-59
2021/07/07 01:39:08;;;;;;;6.20;5.43;;;;;;;14.61;81.55;95733.34;1777520;80;20975;-59
2021/07/07 01:41:35;;;;;;;7.33;6.58;;;;;;;14.58;81.06;95735.25;1778767;80;21591;-59
2021/07/07 01:44:02;;;;;;;7.60;5.53;;;;;;;14.59;81.41;95732.98;1787304;80;21060;-59
2021/07/07 01:46:29;;;;;;;10.13;6.17;;;;;;;14.54;80.61;95726.52;1787479;80;21003;-58
2021/07/07 01:48:56;;;;;;;7.53;6.72;;;;;;;14.51;80.66;95726.56;1787297;80;20986;-58
2021/07/07 01:51:22;;;;;;;7.67;6.10;;;;;;;14.53;80.82;95722.55;1787279;80;21591;-59
2021/07/07 01:53:50;;;;;;;11.05;7.65;;;;;;;14.57;81.72;95725.56;1787094;80;21060;-59
2021/07/07 01:56:17;;;;;;;7.37;6.17;;;;;;;14.62;81.76;95720.50;1787417;80;21040;-59
2021/07/07 01:58:44;;;;;;;6.80;5.78;;;;;;;14.68;81.70;95732.23;1787834;80;21002;-59
2021/07/07 02:01:13;;;;;;;7.23;5.67;;;;;;;14.66;81.32;95731.88;1787527;80;21009;-59
2021/07/07 02:03:40;;;;;;;6.13;5.33;;;;;;;14.60;81.18;95732.95;1787788;80;20998;-59
2021/07/07 02:06:07;;;;;;;8.70;6.75;;;;;;;14.60;81.13;95734.28;1787872;80;20998;-59
2021/07/07 02:08:33;;;;;;;10.93;6.40;;;;;;;14.61;81.07;95734.67;1782273;80;21108;-59
2021/07/07 02:11:00;;;;;;;8.87;5.90;;;;;;;14.67;81.02;95730.98;1787464;80;21044;-59
2021/07/07 02:13:27;;;;;;;7.95;5.75;;;;;;;14.57;81.14;95728.21;1787469;80;21033;-59
2021/07/07 02:15:53;;;;;;;6.65;5.97;;;;;;;14.50;80.99;95734.13;1787544;80;21029;-58
2021/07/07 02:18:20;;;;;;;8.87;6.00;;;;;;;14.49;80.92;95723.98;1788114;80;21029;-59
2021/07/07 02:20:47;;;;;;;11.00;7.00;;;;;;;14.49;81.02;95731.08;1787528;80;21438;-59
2021/07/07 02:23:15;;;;;;;7.77;6.07;;;;;;;14.47;80.88;95720.50;1787334;80;21507;-59
2021/07/07 02:25:44;;;;;;;7.70;5.97;;;;;;;14.47;80.73;95735.56;1787784;80;21084;-59
2021/07/07 02:28:15;;;;;;;6.60;5.78;;;;;;;14.39;80.63;95737.13;1787645;80;21005;-59
2021/07/07 02:30:43;;;;;;;8.43;5.63;;;;;;;14.33;80.66;95730.67;1787758;80;21013;-59
2021/07/07 02:33:10;;;;;;;6.80;5.97;;;;;;;14.28;80.80;95732.13;1787836;80;21009;-59
2021/07/07 02:35:44;;;;;;;8.90;6.80;;;;;;;14.27;80.97;95729.55;1786755;80;21009;-59
2021/07/07 02:38:15;;;;;;;9.50;5.30;;;;;;;14.28;82.00;95729.95;1787632;80;21013;-59
2021/07/07 02:40:43;;;;;;;6.90;6.20;;;;;;;14.27;81.61;95735.72;1787894;80;20985;-59
2021/07/07 02:43:10;;;;;;;7.63;6.00;;;;;;;14.29;81.40;95733.89;1792914;80;21511;-59
2021/07/07 02:45:39;;;;;;;8.40;5.50;;;;;;;14.27;81.34;95739.70;1796219;80;21483;-59
2021/07/07 02:48:08;;;;;;;7.17;5.83;;;;;;;14.25;81.21;95728.25;1796378;79;21036;-59
2021/07/07 02:50:37;;;;;;;7.30;5.80;;;;;;;14.27;81.14;95731.73;1796014;79;21047;-59
2021/07/07 02:53:08;;;;;;;9.43;6.60;;;;;;;14.29;80.86;95731.23;1796237;80;21009;-58
2021/07/07 02:55:35;;;;;;;7.30;6.50;;;;;;;14.35;80.90;95731.96;1795640;80;20982;-59
2021/07/07 02:58:03;;;;;;;8.47;6.27;;;;;;;14.41;81.21;95735.30;1796327;80;21009;-59
2021/07/07 03:00:49;;;;;;;9.83;6.47;;;;;;;14.43;81.78;95730.79;1796357;79;21048;-59
2021/07/07 03:03:19;;;;;;;7.97;6.80;;;;;;;14.47;81.40;95734.23;1795951;80;21005;-59
2021/07/07 03:05:58;;;;;;;10.00;7.03;;;;;;;14.50;81.27;95732.34;1796374;79;21012;-59
2021/07/07 03:08:32;;;;;;;7.33;6.17;;;;;;;14.53;80.73;95735.82;1796333;80;20989;-59
2021/07/07 03:10:59;;;;;;;6.57;5.50;;;;;;;14.47;80.65;95732.45;1796343;79;21028;-59
2021/07/07 03:13:28;;;;;;;6.83;5.40;;;;;;;14.46;80.32;95739.12;1796032;80;21017;-58
2021/07/07 03:15:55;;;;;;;6.53;5.87;;;;;;;14.36;80.20;95736.34;1796284;79;21021;-58
2021/07/07 03:18:23;;;;;;;7.40;6.20;;;;;;;14.18;81.11;95736.45;1795972;79;21056;-59
2021/07/07 03:20:52;;;;;;;6.70;5.73;;;;;;;14.15;81.26;95733.90;1796048;79;21037;-59
2021/07/07 03:23:21;;;;;;;9.20;5.10;;;;;;;14.24;80.98;95740.27;1796291;80;21000;-59
2021/07/07 03:25:51;;;;;;;8.43;6.33;;;;;;;14.26;81.04;95738.41;1796242;80;21515;-59
2021/07/07 03:28:24;;;;;;;9.00;5.77;;;;;;;14.21;81.84;95738.57;1796397;80;20996;-59
2021/07/07 03:30:50;;;;;;;;;;;;;;;14.25;82.10;95734.89;1799027;80;21523;-59
2021/07/07 03:33:17;;;;;;;7.10;5.50;;;;;;;14.31;82.53;95731.63;1796186;80;20108;-59
2021/07/07 03:35:44;;;;;;;9.63;7.20;;;;;;;14.36;82.38;95730.56;1796012;80;21044;-59
2021/07/07 03:38:11;;;;;;;7.03;5.77;;;;;;;14.47;82.59;95731.12;1796129;79;21018;-59
2021/07/07 03:40:40;;;;;;;9.90;6.50;;;;;;;14.58;82.38;95727.28;1796049;80;21005;-59
2021/07/07 03:43:07;;;;;;;6.83;6.00;;;;;;;14.61;82.05;95730.70;1791472;80;21057;-58
2021/07/07 03:45:35;;;;;;;7.97;6.17;;;;;;;14.63;82.09;95732.84;1787449;80;21543;-59
2021/07/07 03:48:02;;;;;;;7.63;6.60;;;;;;;14.67;82.10;95736.29;1787434;80;21060;-59
2021/07/07 03:50:29;;;;;;;10.80;7.37;;;;;;;14.74;82.02;95727.21;1787664;80;20982;-59
2021/07/07 03:52:55;;;;;;;9.77;7.53;;;;;;;14.83;82.00;95729.54;1787575;80;21479;-62
2021/07/07 03:55:24;;;;;;;8.30;7.50;;;;;;;14.91;81.74;95734.13;1787665;80;21005;-59
2021/07/07 03:57:51;;;;;;;9.48;7.85;;;;;;;15.00;81.80;95740.08;1787679;80;21480;-59
2021/07/07 04:00:25;;;;;;;9.23;7.23;;;;;;;15.04;81.54;95733.26;1787540;80;21057;-59
2021/07/07 04:02:54;;;;;;;10.13;8.15;;;;;;;15.10;81.50;95732.20;1787688;80;21017;-59
2021/07/07 04:05:21;;;;;;;10.90;7.80;;;;;;;15.16;81.42;95729.33;1787680;80;21534;-59
2021/07/07 04:07:48;;;;;;;10.08;6.90;;;;;;;15.25;81.28;95739.66;1787703;80;20962;-59
2021/07/07 04:10:17;;;;;;;9.30;7.53;;;;;;;15.28;81.71;95734.69;1787503;80;21009;-59
2021/07/07 04:12:46;;;;;;;8.18;7.37;;;;;;;15.31;81.90;95732.78;1787449;80;21075;-59
2021/07/07 04:15:14;;;;;;;12.07;7.08;;;;;;;15.38;81.84;95733.44;1787786;80;21051;-59
2021/07/07 04:17:44;;;;;;;8.38;7.28;;;;;;;15.48;81.96;95738.84;1787767;80;21510;-59
2021/07/07 04:20:16;;;;;;;10.18;8.03;;;;;;;15.61;81.87;95740.59;1787629;80;21001;-59
2021/07/07 04:22:43;;;;;;;9.80;7.53;;;;;;;15.77;81.84;95739.61;1787947;80;21009;-59
2021/07/07 04:25:14;;;;;;;14.38;7.72;;;;;;;15.92;81.68;95740.36;1787472;80;21052;-59
2021/07/07 04:27:41;;;;;;;11.08;7.78;;;;;;;16.05;81.14;95740.80;1787466;80;20978;-59
2021/07/07 04:30:11;;;;;;;11.43;8.10;;;;;;;16.14;80.96;95737.77;1787730;80;21018;-59
2021/07/07 04:32:38;;;;;;;10.98;7.72;;;;;;;16.28;80.84;95742.58;1787733;80;20989;-59
2021/07/07 04:35:07;;;;;;;9.53;7.22;;;;;;;16.38;80.65;95741.77;1787627;80;21010;-58
2021/07/07 04:37:34;;;;;;;10.15;7.47;;;;;;;16.46;80.44;95742.33;1787859;80;20985;-59
2021/07/07 04:40:04;;;;;;;8.15;6.97;;;;;;;16.55;80.20;95747.27;1787481;80;21013;-59
2021/07/07 04:42:31;;;;;;;9.73;7.55;;;;;;;16.65;79.96;95741.12;1786406;80;21061;-59
2021/07/07 04:44:57;;;;;;;13.50;7.30;;;;;;;16.79;79.64;95745.94;1781801;78;21009;-59
2021/07/07 04:47:24;;;;;;;7.35;6.60;;;;;;;16.93;79.53;95740.89;1777430;81;20990;-59
2021/07/07 04:49:51;;;;;;;7.72;6.78;;;;;;;17.08;79.41;95742.95;1777617;80;21034;-59
2021/07/07 04:52:17;;;;;;;10.95;7.47;;;;;;;17.21;79.15;95739.30;1777830;81;21465;-58
2021/07/07 04:54:45;;;;;;;8.33;7.17;;;;;;;17.34;79.19;95746.75;1777182;81;21000;-59
2021/07/07 04:57:11;;;;;;;9.65;7.80;;;;;;;17.48;78.80;95744.36;1778033;81;21037;-59
2021/07/07 04:59:38;;;;;;;9.65;6.90;;;;;;;17.60;78.39;95752.31;1777559;80;21022;-59
2021/07/07 05:02:04;;;;;;;8.23;6.70;;;;;;;17.70;77.58;95750.50;1777373;80;21018;-59
2021/07/07 05:04:31;;;;;;;12.93;7.25;;;;;;;17.82;77.37;95757.14;1777687;81;21109;-59
2021/07/07 05:06:57;;;;;;;12.23;7.50;;;;;;;17.90;76.82;95758.98;1777910;80;21048;-58
2021/07/07 05:09:24;;;;;;;13.20;7.17;;;;;;;18.04;77.18;95760.16;1777451;81;20978;-59
2021/07/07 05:11:51;;;;;;;8.93;6.55;;;;;;;18.14;76.71;95763.70;1778005;80;21057;-59
2021/07/07 05:14:17;;;;;;;8.33;7.35;;;;;;;18.19;76.20;95764.80;1777899;81;20989;-59
2021/07/07 05:16:44;;;;;;;10.23;6.80;;;;;;;18.33;76.67;95766.85;1734252;81;21061;-59
2021/07/07 05:19:11;;;;;;;9.38;7.45;;;;;;;18.47;76.46;95766.19;1777852;81;21025;-59
2021/07/07 05:21:38;;;;;;;14.50;8.48;;;;;;;18.63;76.33;95767.70;1778012;80;20997;-59
2021/07/07 05:24:07;;;;;;;12.40;9.30;;;;;;;18.77;76.04;95764.80;1777470;80;21465;-59
2021/07/07 05:26:34;;;;;;;12.30;10.00;;;;;;;18.90;75.83;95772.19;1776978;81;21089;-59
2021/07/07 05:29:01;;;;;;;9.88;7.72;;;;;;;19.01;75.68;95760.05;1777808;80;21074;-59
2021/07/07 05:31:28;;;;;;;12.20;8.70;;;;;;;19.08;75.11;95770.45;1777639;80;21002;-59
2021/07/07 05:33:54;;;;;;;9.75;8.65;;;;;;;19.12;75.15;95771.54;1777691;80;21061;-59
2021/07/07 05:36:21;;;;;;;10.68;7.80;;;;;;;19.20;74.94;95781.41;1777636;80;21543;-59
2021/07/07 05:38:47;;;;;;;9.85;7.33;;;;;;;19.27;74.41;95780.61;1777743;80;20966;-59
2021/07/07 05:41:14;;;;;;;14.10;7.83;;;;;;;19.30;73.82;95780.45;1777419;81;21017;-59
2021/07/07 05:43:41;;;;;;;14.47;7.95;;;;;;;19.37;73.84;95781.88;1777460;81;21026;-59
2021/07/07 05:46:08;;;;;;;9.93;8.23;;;;;;;19.46;73.74;95773.41;1786945;80;21554;-59
2021/07/07 05:48:34;;;;;;;8.88;7.97;;;;;;;19.59;73.89;95776.80;1787785;80;21069;-59
2021/07/07 05:51:01;;;;;;;13.83;8.30;;;;;;;19.69;73.80;95776.75;1787226;80;21017;-59
2021/07/07 05:53:29;;;;;;;12.90;8.80;;;;;;;19.79;73.58;95784.70;1787344;80;21017;-59
2021/07/07 05:55:55;;;;;;;12.95;8.58;;;;;;;20.03;73.38;95783.90;1787175;80;21065;-59
2021/07/07 05:58:22;;;;;;;8.73;7.58;;;;;;;20.03;73.38;95783.90;1787187;80;21021;-59
2021/07/07 06:00:48;;;;;;;12.40;7.95;;;;;;;20.18;73.25;95788.03;1787679;80;21005;-59
2021/07/07 06:03:15;;;;;;;13.40;7.42;;;;;;;20.32;73.01;95783.66;1787425;80;21511;-59
2021/07/07 06:05:42;;;;;;;11.57;7.75;;;;;;;20.47;72.94;95788.66;1787375;80;21005;-59
2021/07/07 06:08:09;;;;;;;11.05;7.70;;;;;;;20.62;72.81;95789.67;1787304;80;21540;-59
2021/07/07 06:10:35;;;;;;;10.37;7.50;;;;;;;20.73;72.57;95780.55;1787141;80;21057;-59
2021/07/07 06:13:04;;;;;;;14.10;7.83;;;;;;;20.91;72.39;95781.81;1787549;80;20977;-60
2021/07/07 06:15:33;;;;;;;10.85;6.75;;;;;;;21.03;71.76;95786.48;1787313;80;21032;-59
2021/07/07 06:17:59;;;;;;;16.17;6.30;;;;;;;21.14;71.43;95781.39;1787687;80;21062;-59
2021/07/07 06:20:26;;;;;;;7.87;5.80;;;;;;;21.29;70.84;95784.12;1787182;80;21013;-59
2021/07/07 06:22:53;;;;;;;8.03;6.42;;;;;;;21.34;65.23;95776.66;1787631;80;21515;-59
2021/07/07 06:25:20;;;;;;;9.95;6.50;;;;;;;21.46;67.30;95781.35;1787225;80;21021;-59
2021/07/07 06:27:47;;;;;;;7.35;5.70;;;;;;;21.65;68.06;95778.95;1787533;80;20934;-59
2021/07/07 06:30:18;;;;;;;10.30;5.90;;;;;;;21.85;67.84;95784.44;1787324;80;20978;-59
2021/07/07 06:32:47;;;;;;;6.92;5.97;;;;;;;21.98;64.66;95782.77;1787693;80;21440;-59
2021/07/07 06:35:16;;;;;;;7.92;6.03;;;;;;;22.12;66.32;95781.42;1787386;80;21013;-59
2021/07/07 06:37:43;;;;;;;8.63;6.78;;;;;;;22.28;65.40;95780.05;1787745;80;21432;-59
2021/07/07 06:40:11;;;;;;;7.40;6.70;;;;;;;22.44;65.38;95782.64;1787368;80;20985;-59
2021/07/07 06:42:38;;;;;;;9.38;6.92;;;;;;;22.53;65.13;95781.19;1787290;80;21017;-59
2021/07/07 06:45:08;;;;;;;9.83;7.10;;;;;;;22.68;65.35;95779.75;1755223;80;21010;-59
2021/07/07 06:47:36;;;;;;;7.53;6.72;;;;;;;22.81;64.99;95781.18;1793214;80;21009;-59
2021/07/07 06:50:09;;;;;;;9.93;7.17;;;;;;;22.94;64.91;95790.67;1793341;80;21033;-59
2021/07/07 06:52:37;;;;;;;7.20;6.50;;;;;;;23.08;63.09;95789.79;1793229;80;21041;-59
2021/07/07 06:55:07;;;;;;;7.37;6.40;;;;;;;23.24;64.22;95785.64;1792885;79;21005;-59
2021/07/07 06:57:36;;;;;;;7.42;5.92;;;;;;;23.36;63.46;95781.25;1793271;80;21075;-59
2021/07/07 07:00:12;;;;;;;8.25;6.70;;;;;;;23.52;62.85;95788.70;1793318;79;21032;-59
2021/07/07 07:02:41;;;;;;;7.50;6.85;;;;;;;23.67;63.06;95792.20;1793169;79;21025;-59
2021/07/07 07:05:10;;;;;;;9.88;6.55;;;;;;;23.74;61.05;95782.77;1793249;80;21008;-59
2021/07/07 07:07:37;;;;;;;7.30;6.53;;;;;;;23.79;60.19;95784.67;1793429;80;21443;-59
2021/07/07 07:10:06;;;;;;;8.53;7.08;;;;;;;23.90;60.71;95788.83;1793137;79;21021;-59
2021/07/07 07:12:35;;;;;;;9.50;6.90;;;;;;;23.98;61.80;95789.16;1793578;80;21021;-59
2021/07/07 07:15:08;;;;;;;12.75;8.08;;;;;;;24.12;62.38;95790.06;1793097;80;20997;-60
2021/07/07 07:17:36;;;;;;;7.90;6.65;;;;;;;24.22;61.13;95794.30;1793421;80;21463;-59
2021/07/07 07:20:07;;;;;;;9.68;7.42;;;;;;;24.21;59.35;95790.75;1793248;80;21016;-59
2021/07/07 07:22:36;;;;;;;13.62;7.35;;;;;;;24.30;60.18;95791.47;1793201;80;20969;-59
2021/07/07 07:25:05;;;;;;;11.70;7.30;;;;;;;24.46;60.81;95787.23;1793343;80;20981;-59
2021/07/07 07:27:32;;;;;;;11.20;6.70;;;;;;;24.62;61.19;95788.38;1793380;79;20978;-59
2021/07/07 07:29:58;;;;;;;9.65;7.90;;;;;;;24.76;61.06;95792.77;1793108;80;21070;-59
2021/07/07 07:32:25;;;;;;;11.93;7.50;;;;;;;24.86;60.12;95793.83;1793494;80;21570;-59
2021/07/07 07:34:51;;;;;;;8.15;6.50;;;;;;;24.98;60.37;95781.30;1790732;80;20957;-59
2021/07/07 07:37:24;;;;;;;7.62;6.80;;;;;;;25.08;58.71;95782.84;1792751;80;21120;-59
2021/07/07 07:39:52;;;;;;;9.78;6.53;;;;;;;25.19;58.94;95786.48;1792618;80;21061;-59
2021/07/07 07:42:19;;;;;;;9.63;7.10;;;;;;;25.22;57.43;95784.05;1793055;80;21056;-60
2021/07/07 07:44:47;;;;;;;7.90;6.72;;;;;;;25.34;57.75;95790.39;1792076;80;21061;-59
2021/07/07 07:47:15;;;;;;;7.25;6.37;;;;;;;25.46;57.50;95796.23;1787380;80;21010;-60
2021/07/07 07:49:43;;;;;;;8.90;6.35;;;;;;;25.54;56.49;95791.61;1787410;80;21021;-59
2021/07/07 07:52:11;;;;;;;7.20;6.50;;;;;;;25.63;56.00;95784.17;1787420;80;21547;-59
2021/07/07 07:54:37;;;;;;;9.98;6.60;;;;;;;25.76;56.35;95789.01;1787436;80;21025;-59
2021/07/07 07:57:04;;;;;;;7.40;6.62;;;;;;;25.85;55.99;95788.81;1787771;80;21044;-60
2021/07/07 07:59:31;;;;;;;7.67;5.90;;;;;;;25.97;55.51;95791.94;1787416;80;21001;-59
2021/07/07 08:01:57;;;;;;;6.83;6.12;;;;;;;26.04;54.19;95795.89;1787375;80;21018;-59
2021/07/07 08:04:24;;;;;;;7.10;6.40;;;;;;;26.07;53.46;95795.66;1787654;80;21128;-59
2021/07/07 08:06:50;;;;;;;18.00;8.38;;;;;;;26.19;55.17;95800.61;1787883;80;21002;-59
2021/07/07 08:09:16;;;;;;;7.75;6.67;;;;;;;26.31;54.87;95797.45;1787858;80;21021;-59
2021/07/07 08:11:43;;;;;;;7.30;6.60;;;;;;;26.36;53.87;95797.95;1787182;80;21057;-59
2021/07/07 08:14:11;;;;;;;7.17;6.47;;;;;;;26.46;52.71;95795.36;1787776;80;21078;-59
2021/07/07 08:16:38;;;;;;;10.38;6.35;;;;;;;26.53;53.99;95792.58;1787424;80;21033;-60
2021/07/07 08:19:05;;;;;;;7.90;6.85;;;;;;;26.64;51.73;95795.31;1787211;80;21014;-59
2021/07/07 08:21:31;;;;;;;7.90;6.17;;;;;;;26.76;53.61;95797.05;1787764;80;21531;-59
2021/07/07 08:24:00;;;;;;;9.35;6.75;;;;;;;26.86;53.71;95797.17;1787447;80;20974;-59
2021/07/07 08:26:26;;;;;;;7.08;6.30;;;;;;;27.00;54.13;95797.91;1787592;80;21067;-59
2021/07/07 08:28:53;;;;;;;9.90;6.87;;;;;;;27.07;53.67;95796.42;1787372;80;21044;-59
2021/07/07 08:31:19;;;;;;;6.83;6.17;;;;;;;27.11;52.75;95793.31;1787753;80;20990;-59
2021/07/07 08:33:46;;;;;;;9.30;6.83;;;;;;;27.18;53.63;95794.58;1787363;80;21536;-59
2021/07/07 08:36:18;;;;;;;8.28;6.22;;;;;;;27.29;53.00;95803.20;1787737;80;20994;-59
2021/07/07 08:38:40;;;;;;;7.97;6.42;;;;;;;27.28;51.27;95791.13;1786753;80;21021;-59
2021/07/07 08:41:07;;;;;;;6.97;6.37;;;;;;;27.24;51.98;95794.59;1787266;80;21551;-59
2021/07/07 08:43:33;;;;;;;7.00;6.30;;;;;;;27.37;53.11;95798.01;1787508;80;20994;-59
2021/07/07 08:46:00;;;;;;;8.03;7.10;;;;;;;27.52;53.89;95795.03;1787385;80;21017;-59
2021/07/07 08:48:27;;;;;;;7.30;6.60;;;;;;;27.62;52.00;95796.83;1787125;80;21017;-59
2021/07/07 08:50:57;;;;;;;14.68;6.08;;;;;;;27.71;50.94;95806.03;1787764;80;21040;-59
2021/07/07 08:53:21;;;;;;;7.37;6.33;;;;;;;27.73;50.44;95800.50;1787500;80;21048;-60
2021/07/07 08:55:48;;;;;;;7.62;6.72;;;;;;;27.85;52.64;95798.65;1787531;80;21065;-59
2021/07/07 08:58:15;;;;;;;6.97;6.22;;;;;;;27.95;50.70;95801.80;1787831;80;21005;-60
2021/07/07 09:00:41;;;;;;;8.25;6.53;;;;;;;27.96;48.90;95798.08;1787538;80;21080;-59
2021/07/07 09:03:11;;;;;;;9.15;6.72;;;;;;;28.05;49.57;95804.09;1787346;80;21021;-59
2021/07/07 09:06:05;;;;;;;7.67;6.78;;;;;;;28.00;47.94;95801.41;1787668;80;20958;-59
2021/07/07 09:08:36;;;;;;;7.78;6.03;;;;;;;28.12;49.89;95810.34;1787564;80;20978;-59
2021/07/07 09:11:17;;;;;;;6.90;6.22;;;;;;;28.26;50.42;95805.45;1787420;80;21021;-59
2021/07/07 09:13:47;;;;;;;7.12;6.42;;;;;;;28.31;50.25;95809.13;1787810;80;21535;-59
2021/07/07 09:16:17;;;;;;;7.53;6.58;;;;;;;28.41;50.44;95803.28;1787487;80;21525;-59
2021/07/07 09:18:46;;;;;;;6.78;6.17;;;;;;;28.41;47.79;95795.64;1787353;80;21049;-59
2021/07/07 09:21:31;;;;;;;7.17;6.05;;;;;;;28.53;51.97;95799.19;1787734;80;21021;-59
2021/07/07 09:24:00;;;;;;;7.78;6.17;;;;;;;28.66;51.29;95798.46;1787744;80;21037;-59
2021/07/07 09:26:32;;;;;;;6.55;5.95;;;;;;;28.76;49.44;95795.80;1787397;80;21472;-60
2021/07/07 09:29:00;;;;;;;6.80;5.87;;;;;;;28.87;49.49;95804.70;1787621;80;21018;-60
2021/07/07 09:31:38;;;;;;;6.50;6.00;;;;;;;28.96;47.47;95807.63;1787609;80;21113;-59
2021/07/07 09:34:22;;;;;;;6.58;5.97;;;;;;;29.02;47.71;95805.70;1787742;80;21487;-59
2021/07/07 09:36:52;;;;;;;6.08;5.47;;;;;;;29.04;47.54;95804.57;1787518;80;21057;-59
2021/07/07 09:39:20;;;;;;;6.53;5.92;;;;;;;29.12;46.56;95802.56;1787621;80;21014;-59
2021/07/07 09:41:50;;;;;;;7.03;6.20;;;;;;;29.17;47.52;95806.23;1787477;80;21480;-60
2021/07/07 09:44:18;;;;;;;8.85;6.45;;;;;;;29.21;46.43;95796.81;1787546;80;20993;-59
2021/07/07 09:46:45;;;;;;;7.80;6.05;;;;;;;29.33;48.73;95801.12;1787654;80;21068;-59
2021/07/07 09:49:12;;;;;;;6.28;5.78;;;;;;;29.40;45.39;95805.00;1787356;80;21057;-59
2021/07/07 09:51:38;;;;;;;6.42;5.90;;;;;;;29.30;44.35;95805.48;1787554;80;20950;-59
2021/07/07 09:54:06;;;;;;;6.97;6.37;;;;;;;29.24;44.36;95797.39;1787411;80;21056;-59
2021/07/07 09:56:35;;;;;;;8.68;5.83;;;;;;;29.27;44.81;95803.90;1782450;80;21008;-59
2021/07/07 09:59:02;;;;;;;8.28;6.22;;;;;;;29.37;44.33;95809.37;1787321;80;21018;-59
2021/07/07 10:01:29;;;;;;;7.08;6.35;;;;;;;29.41;43.99;95803.14;1787625;80;20997;-59
2021/07/07 10:03:58;;;;;;;7.53;6.70;;;;;;;29.49;44.29;95803.33;1787514;80;20962;-60
2021/07/07 10:06:26;;;;;;;6.37;5.78;;;;;;;29.66;46.51;95799.96;1787626;80;20989;-59
2021/07/07 10:08:53;;;;;;;7.47;5.95;;;;;;;29.91;46.39;95803.11;1787710;80;20947;-59
2021/07/07 10:11:21;;;;;;;12.70;6.50;;;;;;;30.00;42.58;95795.47;1787671;80;21037;-59
2021/07/07 10:13:48;;;;;;;7.40;5.85;;;;;;;30.13;42.83;95807.42;1787800;80;20994;-59
2021/07/07 10:16:17;;;;;;;8.08;6.87;;;;;;;30.08;42.35;95805.63;1787670;80;21495;-60
2021/07/07 10:18:45;;;;;;;6.53;5.92;;;;;;;30.17;46.07;95809.72;1787521;80;21507;-60
2021/07/07 10:21:12;;;;;;;6.45;5.85;;;;;;;30.26;41.70;95807.16;1787791;80;20973;-59
2021/07/07 10:23:40;;;;;;;6.53;5.83;;;;;;;30.15;37.31;95804.06;1787454;80;21041;-59
2021/07/07 10:26:08;;;;;;;6.22;5.70;;;;;;;30.22;38.69;95811.16;1787563;80;21507;-59
2021/07/07 10:28:35;;;;;;;6.83;6.00;;;;;;;30.34;39.73;95810.01;1787847;80;20974;-59
2021/07/07 10:31:07;;;;;;;6.70;5.92;;;;;;;30.40;39.39;95812.17;1788002;80;21041;-59
2021/07/07 10:33:37;;;;;;;6.62;5.92;;;;;;;30.52;41.81;95812.88;1787222;80;21017;-59
2021/07/07 10:36:22;;;;;;;6.45;5.87;;;;;;;30.72;41.33;95809.11;1787905;80;21483;-59
2021/07/07 10:39:06;;;;;;;6.60;5.80;;;;;;;30.77;38.47;95807.28;1787390;80;21014;-60
2021/07/07 10:41:51;;;;;;;6.28;5.75;;;;;;;30.75;39.46;95807.95;1787556;80;21208;-60
2021/07/07 10:44:29;;;;;;;6.47;5.87;;;;;;;30.93;40.76;95810.29;1787750;80;21005;-60
2021/07/07 10:47:14;;;;;;;6.58;5.97;;;;;;;31.06;43.18;95807.22;1787530;80;21029;-60
2021/07/07 10:49:52;;;;;;;6.70;6.10;;;;;;;31.21;39.12;95811.69;1787941;80;21456;-60
2021/07/07 10:52:42;;;;;;;6.42;5.92;;;;;;;31.30;37.32;95798.52;1787705;80;20978;-60
2021/07/07 10:55:12;;;;;;;6.40;5.90;;;;;;;31.50;37.48;95806.61;1787521;80;21013;-59
2021/07/07 10:57:40;;;;;;;6.58;5.97;;;;;;;31.53;36.21;95808.55;1787565;80;21041;-59
2021/07/07 11:00:30;;;;;;;6.70;5.90;;;;;;;31.36;34.64;95802.51;1787618;80;21069;-60
2021/07/07 11:03:20;;;;;;;6.12;5.53;;;;;;;31.32;35.81;95810.11;1786265;80;21025;-60
2021/07/07 11:05:47;;;;;;;6.58;5.80;;;;;;;31.44;35.86;95809.45;1787966;80;21065;-60
2021/07/07 11:08:20;;;;;;;6.35;5.80;;;;;;;31.51;37.75;95813.28;1787486;80;21069;-60
2021/07/07 11:10:55;;;;;;;6.37;5.78;;;;;;;31.53;37.58;95808.55;1787447;80;21033;-60
2021/07/07 11:13:21;;;;;;;6.10;5.53;;;;;;;31.67;35.87;95811.25;1787052;80;21490;-59
2021/07/07 11:15:48;;;;;;;6.70;5.62;;;;;;;31.74;39.93;95810.98;1787644;80;21037;-60
2021/07/07 11:18:22;;;;;;;6.10;5.60;;;;;;;31.83;38.41;95810.59;1752177;80;21550;-59
2021/07/07 11:21:01;;;;;;;6.42;5.83;;;;;;;31.97;39.13;95811.95;1787638;80;20998;-60
2021/07/07 11:23:27;;;;;;;8.70;5.60;;;;;;;32.17;40.16;95805.31;1787701;80;21057;-60
2021/07/07 11:25:56;;;;;;;6.15;5.65;;;;;;;32.30;39.88;95808.49;1787279;80;21053;-60
2021/07/07 11:28:22;;;;;;;5.97;5.33;;;;;;;32.45;40.50;95809.31;1787302;80;21005;-59
2021/07/07 11:30:52;;;;;;;5.42;5.00;;;;;;;32.38;39.30;95810.95;1787361;80;21571;-60
2021/07/07 11:33:18;;;;;;;5.58;5.08;;;;;;;32.26;40.86;95815.82;1787942;80;20982;-59
2021/07/07 11:35:48;;;;;;;6.58;5.33;;;;;;;32.11;37.97;95812.77;1787121;80;21077;-60
2021/07/07 11:38:21;;;;;;;5.92;5.42;;;;;;;31.97;38.49;95808.70;1787689;80;21431;-60